createdAt,value
2023-03-12T00:00:09.895Z,25.11
2023-03-12T00:00:19.900Z,25.11
2023-03-12T00:00:29.918Z,25.12
2023-03-12T00:00:39.926Z,25.12
2023-03-12T00:00:49.929Z,25.12
2023-03-12T00:00:59.942Z,25.12
2023-03-12T00:01:09.947Z,25.11
2023-03-12T00:01:19.969Z,25.12
2023-03-12T00:01:30.638Z,25.12
2023-03-12T00:01:40.034Z,25.11
2023-03-12T00:01:50.022Z,25.12
2023-03-12T00:02:00.048Z,25.12
2023-03-12T00:02:10.073Z,25.12
2023-03-12T00:02:20.108Z,25.12
2023-03-12T00:02:30.120Z,25.12
2023-03-12T00:02:40.176Z,25.12
2023-03-12T00:02:50.221Z,25.12
2023-03-12T00:03:00.259Z,25.12
2023-03-12T00:03:10.267Z,25.11
2023-03-12T00:03:20.346Z,25.12
2023-03-12T00:03:30.363Z,25.12
2023-03-12T00:03:40.514Z,25.12
2023-03-12T00:03:50.531Z,25.11
2023-03-12T00:04:00.445Z,25.12
2023-03-12T00:04:10.541Z,25.12
2023-03-12T00:04:20.557Z,25.13
2023-03-12T00:04:30.569Z,25.13
2023-03-12T00:04:40.576Z,25.13
2023-03-12T00:04:50.576Z,25.13
2023-03-12T00:05:00.580Z,25.13
2023-03-12T00:05:10.837Z,25.13
2023-03-12T00:05:20.957Z,25.13
2023-03-12T00:05:30.956Z,25.13
2023-03-12T00:05:41.215Z,25.13
2023-03-12T00:05:51.228Z,25.12
2023-03-12T00:06:10.014Z,25.13
2023-03-12T00:06:11.403Z,25.07
2023-03-12T00:06:21.294Z,25.09
2023-03-12T00:06:31.302Z,25.10
2023-03-12T00:06:41.316Z,25.11
2023-03-12T00:06:51.324Z,25.11
2023-03-12T00:07:01.446Z,25.11
2023-03-12T00:07:11.445Z,25.11
2023-03-12T00:07:21.578Z,25.11
2023-03-12T00:07:31.832Z,25.11
2023-03-12T00:07:41.970Z,25.12
2023-03-12T00:07:51.994Z,25.12
2023-03-12T00:08:02.246Z,25.12
2023-03-12T00:08:12.236Z,25.12
2023-03-12T00:08:22.236Z,25.12
2023-03-12T00:08:32.235Z,25.12
2023-03-12T00:08:42.378Z,25.12
2023-03-12T00:08:53.915Z,25.12
2023-03-12T00:09:02.500Z,25.09
2023-03-12T00:09:12.604Z,25.10
2023-03-12T00:09:22.602Z,25.11
2023-03-12T00:09:32.606Z,25.12
2023-03-12T00:09:42.602Z,25.11
2023-03-12T00:09:52.608Z,25.11
2023-03-12T00:10:02.746Z,25.12
2023-03-12T00:10:12.748Z,25.12
2023-03-12T00:10:22.865Z,25.12
2023-03-12T00:10:32.892Z,25.12
2023-03-12T00:10:43.004Z,25.12
2023-03-12T00:10:53.003Z,25.12
2023-03-12T00:11:03.137Z,25.12
2023-03-12T00:11:13.397Z,25.12
2023-03-12T00:11:23.520Z,25.12
2023-03-12T00:11:33.538Z,25.12
2023-03-12T00:11:43.795Z,25.13
2023-03-12T00:11:53.782Z,25.13
2023-03-12T00:12:03.795Z,25.13
2023-03-12T00:12:13.793Z,25.12
2023-03-12T00:12:23.803Z,25.13
2023-03-12T00:12:33.797Z,25.12
2023-03-12T00:12:43.916Z,25.12
2023-03-12T00:12:53.917Z,25.13
2023-03-12T00:13:04.127Z,25.13
2023-03-12T00:13:14.120Z,25.12
2023-03-12T00:13:24.245Z,25.13
2023-03-12T00:13:34.238Z,25.12
2023-03-12T00:13:44.365Z,25.13
2023-03-12T00:13:54.644Z,25.12
2023-03-12T00:14:04.639Z,25.12
2023-03-12T00:14:14.646Z,25.12
2023-03-12T00:14:25.016Z,25.13
2023-03-12T00:14:35.016Z,25.13
2023-03-12T00:14:45.134Z,25.13
2023-03-12T00:14:55.408Z,25.12
2023-03-12T00:15:05.415Z,25.12
2023-03-12T00:15:15.419Z,25.12
2023-03-12T00:15:25.417Z,25.12
2023-03-12T00:15:35.492Z,25.11
2023-03-12T00:15:45.568Z,25.11
2023-03-12T00:15:55.665Z,25.11
2023-03-12T00:16:05.693Z,25.10
2023-03-12T00:16:15.837Z,25.09
2023-03-12T00:16:25.902Z,25.09
2023-03-12T00:16:36.081Z,25.09
2023-03-12T00:16:46.214Z,25.09
2023-03-12T00:16:56.219Z,25.09
2023-03-12T00:17:06.487Z,25.09
2023-03-12T00:17:16.621Z,25.09
2023-03-12T00:17:26.630Z,25.08
2023-03-12T00:17:36.883Z,25.09
2023-03-12T00:17:46.887Z,25.09
2023-03-12T00:17:56.903Z,25.09
2023-03-12T00:18:06.910Z,25.08
2023-03-12T00:18:17.034Z,25.08
2023-03-12T00:18:27.040Z,25.09
2023-03-12T00:18:37.148Z,25.08
2023-03-12T00:18:47.167Z,25.09
2023-03-12T00:18:57.176Z,25.08
2023-03-12T00:19:07.168Z,25.08
2023-03-12T00:19:17.297Z,25.08
2023-03-12T00:19:27.302Z,25.09
2023-03-12T00:19:37.343Z,25.09
2023-03-12T00:19:47.328Z,25.09
2023-03-12T00:19:57.361Z,25.08
2023-03-12T00:20:07.351Z,25.09
2023-03-12T00:20:17.480Z,25.08
2023-03-12T00:20:27.493Z,25.08
2023-03-12T00:20:37.512Z,25.08
2023-03-12T00:20:47.505Z,25.09
2023-03-12T00:20:57.889Z,25.09
2023-03-12T00:21:07.908Z,25.09
2023-03-12T00:21:17.920Z,25.08
2023-03-12T00:21:27.926Z,25.09
2023-03-12T00:21:37.961Z,25.08
2023-03-12T00:21:47.954Z,25.07
2023-03-12T00:21:58.075Z,25.07
2023-03-12T00:22:08.079Z,25.07
2023-03-12T00:22:18.196Z,25.06
2023-03-12T00:22:28.206Z,25.06
2023-03-12T00:22:38.351Z,25.06
2023-03-12T00:22:48.339Z,25.07
2023-03-12T00:22:58.345Z,25.06
2023-03-12T00:23:08.345Z,25.05
2023-03-12T00:23:18.472Z,25.05
2023-03-12T00:23:28.472Z,25.05
2023-03-12T00:23:38.480Z,25.05
2023-03-12T00:23:48.499Z,25.05
2023-03-12T00:23:58.501Z,25.05
2023-03-12T00:24:08.511Z,25.05
2023-03-12T00:24:18.776Z,25.05
2023-03-12T00:24:28.772Z,25.06
2023-03-12T00:24:38.899Z,25.05
2023-03-12T00:24:49.152Z,25.05
2023-03-12T00:24:59.162Z,25.05
2023-03-12T00:25:09.161Z,25.05
2023-03-12T00:25:19.542Z,25.05
2023-03-12T00:25:29.538Z,25.06
2023-03-12T00:25:39.583Z,25.06
2023-03-12T00:25:49.570Z,25.06
2023-03-12T00:25:59.573Z,25.05
2023-03-12T00:26:09.570Z,25.05
2023-03-12T00:26:19.573Z,25.05
2023-03-12T00:26:29.589Z,25.05
2023-03-12T00:26:39.595Z,25.06
2023-03-12T00:26:49.629Z,25.05
2023-03-12T00:26:59.613Z,25.05
2023-03-12T00:27:09.625Z,25.04
2023-03-12T00:27:19.746Z,25.04
2023-03-12T00:27:29.753Z,25.04
2023-03-12T00:27:39.869Z,25.05
2023-03-12T00:27:49.870Z,25.04
2023-03-12T00:27:59.873Z,25.04
2023-03-12T00:28:10.008Z,25.04
2023-03-12T00:28:20.017Z,25.04
2023-03-12T00:28:30.035Z,25.04
2023-03-12T00:28:40.047Z,25.04
2023-03-12T00:28:50.049Z,25.04
2023-03-12T00:29:00.191Z,25.04
2023-03-12T00:29:10.181Z,25.04
2023-03-12T00:29:20.189Z,25.03
2023-03-12T00:29:30.190Z,25.03
2023-03-12T00:29:40.311Z,25.03
2023-03-12T00:29:50.444Z,25.02
2023-03-12T00:30:00.564Z,25.02
2023-03-12T00:30:10.572Z,25.02
2023-03-12T00:30:20.833Z,25.02
2023-03-12T00:30:30.842Z,25.03
2023-03-12T00:30:40.840Z,25.02
2023-03-12T00:30:50.855Z,25.02
2023-03-12T00:31:00.919Z,25.02
2023-03-12T00:31:10.937Z,25.03
2023-03-12T00:31:20.997Z,25.02
2023-03-12T00:31:31.110Z,25.02
2023-03-12T00:31:41.130Z,25.02
2023-03-12T00:31:51.218Z,25.01
2023-03-12T00:32:01.367Z,25.01
2023-03-12T00:32:11.367Z,25.01
2023-03-12T00:32:21.383Z,25.01
2023-03-12T00:32:31.419Z,25.01
2023-03-12T00:32:41.472Z,25.00
2023-03-12T00:32:51.530Z,25.00
2023-03-12T00:33:01.572Z,25.00
2023-03-12T00:33:11.577Z,25.00
2023-03-12T00:33:21.698Z,24.99
2023-03-12T00:33:31.698Z,24.99
2023-03-12T00:33:41.958Z,25.00
2023-03-12T00:33:51.950Z,24.99
2023-03-12T00:34:01.961Z,24.98
2023-03-12T00:34:11.967Z,25.00
2023-03-12T00:34:22.086Z,24.99
2023-03-12T00:34:32.088Z,24.99
2023-03-12T00:34:42.209Z,24.99
2023-03-12T00:34:52.218Z,24.98
2023-03-12T00:35:02.218Z,24.99
2023-03-12T00:35:12.215Z,24.98
2023-03-12T00:35:22.345Z,24.98
2023-03-12T00:35:32.358Z,24.98
2023-03-12T00:35:42.371Z,24.98
2023-03-12T00:35:52.395Z,24.97
2023-03-12T00:36:02.461Z,24.96
2023-03-12T00:36:12.475Z,24.97
2023-03-12T00:36:22.612Z,24.96
2023-03-12T00:36:32.628Z,24.96
2023-03-12T00:36:42.749Z,24.98
2023-03-12T00:36:52.761Z,24.97
2023-03-12T00:37:02.904Z,24.96
2023-03-12T00:37:12.939Z,24.97
2023-03-12T00:37:22.935Z,24.97
2023-03-12T00:37:32.935Z,24.96
2023-03-12T00:37:42.945Z,24.96
2023-03-12T00:37:52.956Z,24.95
2023-03-12T00:38:02.945Z,24.95
2023-03-12T00:38:12.967Z,24.95
2023-03-12T00:38:23.085Z,24.95
2023-03-12T00:38:33.091Z,24.94
2023-03-12T00:38:43.343Z,24.94
2023-03-12T00:38:53.345Z,24.95
2023-03-12T00:39:03.473Z,24.94
2023-03-12T00:39:13.733Z,24.94
2023-03-12T00:39:23.728Z,24.94
2023-03-12T00:39:33.725Z,24.94
2023-03-12T00:39:43.734Z,24.95
2023-03-12T00:39:53.742Z,24.93
2023-03-12T00:40:03.754Z,24.93
2023-03-12T00:40:13.761Z,24.93
2023-03-12T00:40:23.889Z,24.94
2023-03-12T00:40:33.881Z,24.93
2023-03-12T00:40:43.926Z,24.93
2023-03-12T00:40:54.160Z,24.92
2023-03-12T00:41:04.278Z,24.92
2023-03-12T00:41:14.284Z,24.92
2023-03-12T00:41:24.558Z,24.92
2023-03-12T00:41:34.560Z,24.91
2023-03-12T00:41:44.552Z,24.92
2023-03-12T00:41:54.553Z,24.91
2023-03-12T00:42:04.571Z,24.91
2023-03-12T00:42:14.572Z,24.91
2023-03-12T00:42:24.601Z,24.91
2023-03-12T00:42:34.595Z,24.90
2023-03-12T00:42:44.612Z,24.90
2023-03-12T00:42:54.613Z,24.90
2023-03-12T00:43:04.634Z,24.90
2023-03-12T00:43:14.637Z,24.90
2023-03-12T00:43:24.649Z,24.90
2023-03-12T00:43:34.665Z,24.90
2023-03-12T00:43:44.670Z,24.90
2023-03-12T00:43:54.682Z,24.90
2023-03-12T00:44:04.792Z,24.89
2023-03-12T00:44:15.050Z,24.89
2023-03-12T00:44:25.168Z,24.89
2023-03-12T00:44:35.170Z,24.89
2023-03-12T00:44:45.418Z,24.89
2023-03-12T00:44:55.428Z,24.88
2023-03-12T00:45:05.548Z,24.89
2023-03-12T00:45:15.835Z,24.88
2023-03-12T00:45:25.944Z,24.88
2023-03-12T00:45:35.943Z,24.89
2023-03-12T00:45:46.227Z,24.88
2023-03-12T00:45:56.230Z,24.87
2023-03-12T00:46:06.253Z,24.88
2023-03-12T00:46:16.277Z,24.88
2023-03-12T00:46:26.352Z,24.86
2023-03-12T00:46:36.484Z,24.86
2023-03-12T00:46:46.556Z,24.87
2023-03-12T00:46:56.699Z,24.86
2023-03-12T00:47:06.653Z,24.86
2023-03-12T00:47:16.657Z,24.86
2023-03-12T00:47:26.919Z,24.85
2023-03-12T00:47:36.947Z,24.86
2023-03-12T00:47:46.952Z,24.85
2023-03-12T00:47:56.951Z,24.85
2023-03-12T00:48:07.084Z,24.84
2023-03-12T00:48:17.081Z,24.83
2023-03-12T00:48:27.102Z,24.82
2023-03-12T00:48:37.088Z,24.73
2023-03-12T00:48:47.108Z,24.64
2023-03-12T00:48:57.109Z,24.54
2023-03-12T00:49:07.360Z,24.39
2023-03-12T00:49:17.365Z,24.26
2023-03-12T00:49:27.481Z,24.14
2023-03-12T00:49:37.744Z,23.96
2023-03-12T00:49:47.864Z,23.85
2023-03-12T00:49:57.865Z,23.72
2023-03-12T00:50:08.121Z,23.51
2023-03-12T00:50:18.123Z,23.39
2023-03-12T00:50:28.244Z,23.27
2023-03-12T00:50:38.504Z,23.08
2023-03-12T00:50:48.625Z,22.98
2023-03-12T00:50:58.626Z,22.86
2023-03-12T00:51:08.902Z,22.75
2023-03-12T00:51:18.914Z,22.64
2023-03-12T00:51:28.918Z,22.55
2023-03-12T00:51:38.925Z,22.47
2023-03-12T00:51:48.937Z,22.35
2023-03-12T00:51:58.952Z,22.28
2023-03-12T00:52:08.956Z,22.20
2023-03-12T00:52:18.974Z,22.11
2023-03-12T00:52:28.985Z,22.03
2023-03-12T00:52:38.983Z,21.98
2023-03-12T00:52:49.362Z,21.91
2023-03-12T00:52:59.359Z,21.86
2023-03-12T00:53:09.478Z,21.81
2023-03-12T00:53:19.736Z,21.73
2023-03-12T00:53:29.747Z,21.69
2023-03-12T00:53:39.753Z,21.67
2023-03-12T00:53:49.773Z,21.66
2023-03-12T00:53:59.775Z,21.68
2023-03-12T00:54:09.781Z,21.73
2023-03-12T00:54:19.799Z,21.79
2023-03-12T00:54:29.798Z,21.86
2023-03-12T00:54:39.801Z,21.92
2023-03-12T00:54:49.822Z,22.00
2023-03-12T00:54:59.828Z,22.06
2023-03-12T00:55:09.950Z,22.15
2023-03-12T00:55:19.951Z,22.21
2023-03-12T00:55:29.955Z,22.29
2023-03-12T00:55:39.969Z,22.38
2023-03-12T00:55:50.008Z,22.43
2023-03-12T00:55:59.992Z,22.50
2023-03-12T00:56:10.256Z,22.57
2023-03-12T00:56:20.259Z,22.63
2023-03-12T00:56:30.379Z,22.68
2023-03-12T00:56:40.638Z,22.75
2023-03-12T00:56:50.771Z,22.80
2023-03-12T00:57:00.788Z,22.85
2023-03-12T00:57:11.036Z,22.90
2023-03-12T00:57:21.033Z,22.95
2023-03-12T00:57:31.153Z,23.00
2023-03-12T00:57:41.422Z,23.05
2023-03-12T00:57:51.412Z,23.09
2023-03-12T00:58:01.424Z,23.12
2023-03-12T00:58:11.798Z,23.17
2023-03-12T00:58:21.801Z,23.20
2023-03-12T00:58:31.926Z,23.23
2023-03-12T00:58:42.182Z,23.27
2023-03-12T00:58:52.200Z,23.29
2023-03-12T00:59:02.227Z,23.32
2023-03-12T00:59:12.214Z,23.35
2023-03-12T00:59:22.230Z,23.38
2023-03-12T00:59:32.362Z,23.40
2023-03-12T00:59:42.360Z,23.42
2023-03-12T00:59:52.483Z,23.46
2023-03-12T01:00:02.605Z,23.48
2023-03-12T01:00:12.605Z,23.49
2023-03-12T01:00:22.611Z,23.52
2023-03-12T01:00:32.687Z,23.54
2023-03-12T01:00:42.778Z,23.56
2023-03-12T01:00:53.276Z,23.58
2023-03-12T01:01:03.096Z,23.60
2023-03-12T01:01:13.187Z,23.62
2023-03-12T01:01:23.205Z,23.63
2023-03-12T01:01:33.219Z,23.65
2023-03-12T01:01:43.230Z,23.66
2023-03-12T01:01:53.226Z,23.67
2023-03-12T01:02:03.352Z,23.69
2023-03-12T01:02:13.352Z,23.71
2023-03-12T01:02:23.370Z,23.72
2023-03-12T01:02:33.634Z,23.73
2023-03-12T01:02:43.634Z,23.75
2023-03-12T01:02:53.635Z,23.76
2023-03-12T01:03:04.021Z,23.78
2023-03-12T01:03:14.024Z,23.78
2023-03-12T01:03:24.026Z,23.79
2023-03-12T01:03:34.046Z,23.79
2023-03-12T01:03:44.128Z,23.81
2023-03-12T01:03:54.269Z,23.82
2023-03-12T01:04:04.185Z,23.83
2023-03-12T01:04:14.247Z,23.84
2023-03-12T01:04:24.368Z,23.85
2023-03-12T01:04:34.377Z,23.86
2023-03-12T01:04:44.505Z,23.87
2023-03-12T01:04:54.521Z,23.87
2023-03-12T01:05:04.528Z,23.88
2023-03-12T01:05:14.542Z,23.89
2023-03-12T01:05:24.553Z,23.90
2023-03-12T01:05:35.195Z,23.91
2023-03-12T01:05:44.604Z,23.91
2023-03-12T01:05:54.634Z,23.92
2023-03-12T01:06:04.622Z,23.92
2023-03-12T01:06:14.637Z,23.93
2023-03-12T01:06:24.640Z,23.94
2023-03-12T01:06:34.650Z,23.95
2023-03-12T01:06:44.775Z,23.95
2023-03-12T01:06:54.775Z,23.96
2023-03-12T01:07:04.899Z,23.97
2023-03-12T01:07:14.903Z,23.98
2023-03-12T01:07:24.901Z,23.98
2023-03-12T01:07:35.035Z,23.99
2023-03-12T01:07:45.039Z,24.00
2023-03-12T01:07:55.061Z,23.99
2023-03-12T01:08:05.048Z,24.00
2023-03-12T01:08:15.053Z,24.01
2023-03-12T01:08:25.178Z,24.02
2023-03-12T01:08:35.188Z,24.02
2023-03-12T01:08:45.304Z,24.03
2023-03-12T01:08:55.310Z,24.03
2023-03-12T01:09:05.420Z,24.04
2023-03-12T01:09:15.433Z,24.04
2023-03-12T01:09:25.435Z,24.05
2023-03-12T01:09:35.452Z,24.06
2023-03-12T01:09:45.441Z,24.06
2023-03-12T01:09:55.449Z,24.06
2023-03-12T01:10:05.579Z,24.07
2023-03-12T01:10:15.574Z,24.07
2023-03-12T01:10:25.713Z,24.08
2023-03-12T01:10:35.704Z,24.09
2023-03-12T01:10:45.834Z,24.09
2023-03-12T01:10:55.873Z,24.09
2023-03-12T01:11:05.851Z,24.10
2023-03-12T01:11:15.860Z,24.10
2023-03-12T01:11:26.239Z,24.11
2023-03-12T01:11:36.256Z,24.12
2023-03-12T01:11:46.258Z,24.12
2023-03-12T01:11:56.272Z,24.12
2023-03-12T01:12:06.284Z,24.13
2023-03-12T01:12:16.310Z,24.13
2023-03-12T01:12:26.300Z,24.13
2023-03-12T01:12:36.316Z,24.15
2023-03-12T01:12:46.322Z,24.14
2023-03-12T01:12:56.328Z,24.15
2023-03-12T01:13:06.709Z,24.15
2023-03-12T01:13:16.713Z,24.16
2023-03-12T01:13:26.710Z,24.17
2023-03-12T01:13:36.710Z,24.17
2023-03-12T01:13:46.840Z,24.17
2023-03-12T01:13:56.842Z,24.18
2023-03-12T01:14:06.968Z,24.18
2023-03-12T01:14:16.983Z,24.19
2023-03-12T01:14:26.989Z,24.20
2023-03-12T01:14:36.989Z,24.21
2023-03-12T01:14:47.136Z,24.21
2023-03-12T01:14:57.151Z,24.21
2023-03-12T01:15:07.157Z,24.22
2023-03-12T01:15:17.167Z,24.23
2023-03-12T01:15:27.191Z,24.22
2023-03-12T01:15:37.189Z,24.24
2023-03-12T01:15:47.197Z,24.23
2023-03-12T01:15:57.260Z,24.24
2023-03-12T01:16:07.371Z,24.24
2023-03-12T01:16:17.439Z,24.25
2023-03-12T01:16:27.797Z,24.25
2023-03-12T01:16:37.916Z,24.26
2023-03-12T01:16:47.957Z,24.26
2023-03-12T01:16:58.115Z,24.27
2023-03-12T01:17:08.245Z,24.28
2023-03-12T01:17:18.236Z,24.27
2023-03-12T01:17:28.497Z,24.27
2023-03-12T01:17:38.507Z,24.27
2023-03-12T01:17:48.520Z,24.28
2023-03-12T01:17:58.526Z,24.29
2023-03-12T01:18:08.563Z,24.29
2023-03-12T01:18:18.566Z,24.29
2023-03-12T01:18:28.685Z,24.30
2023-03-12T01:18:38.691Z,24.31
2023-03-12T01:18:48.694Z,24.31
2023-03-12T01:18:58.696Z,24.32
2023-03-12T01:19:08.950Z,24.32
2023-03-12T01:19:18.948Z,24.34
2023-03-12T01:19:29.068Z,24.34
2023-03-12T01:19:39.328Z,24.34
2023-03-12T01:19:49.467Z,24.34
2023-03-12T01:19:59.482Z,24.34
2023-03-12T01:20:09.747Z,24.35
2023-03-12T01:20:19.742Z,24.35
2023-03-12T01:20:29.744Z,24.35
2023-03-12T01:20:39.749Z,24.36
2023-03-12T01:20:49.870Z,24.36
2023-03-12T01:20:59.879Z,24.36
2023-03-12T01:21:09.893Z,24.36
2023-03-12T01:21:19.901Z,24.36
2023-03-12T01:21:29.900Z,24.37
2023-03-12T01:21:39.911Z,24.37
2023-03-12T01:21:50.177Z,24.37
2023-03-12T01:22:00.182Z,24.38
2023-03-12T01:22:10.188Z,24.39
2023-03-12T01:22:20.203Z,24.38
2023-03-12T01:22:30.211Z,24.39
2023-03-12T01:22:40.213Z,24.39
2023-03-12T01:22:50.333Z,24.39
2023-03-12T01:23:00.351Z,24.41
2023-03-12T01:23:10.356Z,24.41
2023-03-12T01:23:20.358Z,24.41
2023-03-12T01:23:30.621Z,24.41
2023-03-12T01:23:40.610Z,24.42
2023-03-12T01:23:50.731Z,24.42
2023-03-12T01:24:01.001Z,24.42
2023-03-12T01:24:11.122Z,24.42
2023-03-12T01:24:21.124Z,24.44
2023-03-12T01:24:31.396Z,24.45
2023-03-12T01:24:41.388Z,24.44
2023-03-12T01:24:51.403Z,24.44
2023-03-12T01:25:01.415Z,24.45
2023-03-12T01:25:11.427Z,24.46
2023-03-12T01:25:21.433Z,24.46
2023-03-12T01:25:31.446Z,24.47
2023-03-12T01:25:41.454Z,24.47
2023-03-12T01:25:51.462Z,24.47
2023-03-12T01:26:01.492Z,24.47
2023-03-12T01:26:11.468Z,24.49
2023-03-12T01:26:21.480Z,24.49
2023-03-12T01:26:31.603Z,24.48
2023-03-12T01:26:41.617Z,24.48
2023-03-12T01:26:51.630Z,24.49
2023-03-12T01:27:01.624Z,24.50
2023-03-12T01:27:11.745Z,24.49
2023-03-12T01:27:21.884Z,24.50
2023-03-12T01:27:32.018Z,24.51
2023-03-12T01:27:42.005Z,24.51
2023-03-12T01:27:52.273Z,24.52
2023-03-12T01:28:02.287Z,24.52
2023-03-12T01:28:12.290Z,24.52
2023-03-12T01:28:22.298Z,24.52
2023-03-12T01:28:32.309Z,24.53
2023-03-12T01:28:42.309Z,24.53
2023-03-12T01:28:52.432Z,24.54
2023-03-12T01:29:02.439Z,24.54
2023-03-12T01:29:12.451Z,24.54
2023-03-12T01:29:22.453Z,24.55
2023-03-12T01:29:32.714Z,24.55
2023-03-12T01:29:42.725Z,24.55
2023-03-12T01:29:52.718Z,24.55
2023-03-12T01:30:02.720Z,24.56
2023-03-12T01:30:12.764Z,24.56
2023-03-12T01:30:22.754Z,24.57
2023-03-12T01:30:32.756Z,24.57
2023-03-12T01:30:42.764Z,24.57
2023-03-12T01:30:52.767Z,24.58
2023-03-12T01:31:02.789Z,24.58
2023-03-12T01:31:12.872Z,24.58
2023-03-12T01:31:22.863Z,24.58
2023-03-12T01:31:32.904Z,24.58
2023-03-12T01:31:42.931Z,24.59
2023-03-12T01:31:53.166Z,24.59
2023-03-12T01:32:03.076Z,24.60
2023-03-12T01:32:13.081Z,24.59
2023-03-12T01:32:23.166Z,24.60
2023-03-12T01:32:33.243Z,24.60
2023-03-12T01:32:43.301Z,24.61
2023-03-12T01:32:53.435Z,24.61
2023-03-12T01:33:03.335Z,24.61
2023-03-12T01:33:13.347Z,24.61
2023-03-12T01:33:23.346Z,24.62
2023-03-12T01:33:33.732Z,24.63
2023-03-12T01:33:43.729Z,24.62
2023-03-12T01:33:53.746Z,24.62
2023-03-12T01:34:03.746Z,24.63
2023-03-12T01:34:13.774Z,24.62
2023-03-12T01:34:23.772Z,24.62
2023-03-12T01:34:33.777Z,24.63
2023-03-12T01:34:43.798Z,24.63
2023-03-12T01:34:53.801Z,24.63
2023-03-12T01:35:03.835Z,24.64
2023-03-12T01:35:13.883Z,24.65
2023-03-12T01:35:23.956Z,24.65
2023-03-12T01:35:34.065Z,24.65
2023-03-12T01:35:44.161Z,24.65
2023-03-12T01:35:54.061Z,24.66
2023-03-12T01:36:04.218Z,24.65
2023-03-12T01:36:14.130Z,24.65
2023-03-12T01:36:24.495Z,24.67
2023-03-12T01:36:34.491Z,24.67
2023-03-12T01:36:44.476Z,24.67
2023-03-12T01:36:54.855Z,24.67
2023-03-12T01:37:04.861Z,24.68
2023-03-12T01:37:14.982Z,24.67
2023-03-12T01:37:25.243Z,24.68
2023-03-12T01:37:35.274Z,24.68
2023-03-12T01:37:45.260Z,24.69
2023-03-12T01:37:55.641Z,24.69
2023-03-12T01:38:05.637Z,24.69
2023-03-12T01:38:15.759Z,24.70
2023-03-12T01:38:26.020Z,24.70
2023-03-12T01:38:36.030Z,24.70
2023-03-12T01:38:46.023Z,24.70
2023-03-12T01:38:56.040Z,24.71
2023-03-12T01:39:06.048Z,24.71
2023-03-12T01:39:16.061Z,24.72
2023-03-12T01:39:26.058Z,24.71
2023-03-12T01:39:36.066Z,24.72
2023-03-12T01:39:46.081Z,24.72
2023-03-12T01:39:56.083Z,24.72
2023-03-12T01:40:06.099Z,24.73
2023-03-12T01:40:16.102Z,24.73
2023-03-12T01:40:26.115Z,24.73
2023-03-12T01:40:36.106Z,24.74
2023-03-12T01:40:46.116Z,24.74
2023-03-12T01:40:56.234Z,24.75
2023-03-12T01:41:06.266Z,24.74
2023-03-12T01:41:16.504Z,24.74
2023-03-12T01:41:26.512Z,24.74
2023-03-12T01:41:36.509Z,24.74
2023-03-12T01:41:46.513Z,24.74
2023-03-12T01:41:56.643Z,24.76
2023-03-12T01:42:06.655Z,24.76
2023-03-12T01:42:16.653Z,24.75
2023-03-12T01:42:26.702Z,24.75
2023-03-12T01:42:36.688Z,24.76
2023-03-12T01:42:46.693Z,24.76
2023-03-12T01:42:56.975Z,24.77
2023-03-12T01:43:06.958Z,24.77
2023-03-12T01:43:16.967Z,24.77
2023-03-12T01:43:27.347Z,24.77
2023-03-12T01:43:37.363Z,24.77
2023-03-12T01:43:47.365Z,24.77
2023-03-12T01:43:57.362Z,24.77
2023-03-12T01:44:07.374Z,24.78
2023-03-12T01:44:17.383Z,24.78
2023-03-12T01:44:27.394Z,24.79
2023-03-12T01:44:37.401Z,24.79
2023-03-12T01:44:47.524Z,24.79
2023-03-12T01:44:57.523Z,24.79
2023-03-12T01:45:07.786Z,24.79
2023-03-12T01:45:17.785Z,24.79
2023-03-12T01:45:27.952Z,24.79
2023-03-12T01:45:38.312Z,24.79
2023-03-12T01:45:48.361Z,24.80
2023-03-12T01:45:58.504Z,24.80
2023-03-12T01:46:08.440Z,24.80
2023-03-12T01:46:18.456Z,24.80
2023-03-12T01:46:28.583Z,24.80
2023-03-12T01:46:38.610Z,24.81
2023-03-12T01:46:48.616Z,24.81
2023-03-12T01:46:58.619Z,24.81
2023-03-12T01:47:08.615Z,24.81
2023-03-12T01:47:18.881Z,24.82
2023-03-12T01:47:29.010Z,24.82
2023-03-12T01:47:39.024Z,24.82
2023-03-12T01:47:49.278Z,24.82
2023-03-12T01:47:59.282Z,24.82
2023-03-12T01:48:09.418Z,24.83
2023-03-12T01:48:19.676Z,24.83
2023-03-12T01:48:29.795Z,24.83
2023-03-12T01:48:39.797Z,24.83
2023-03-12T01:48:50.065Z,24.83
2023-03-12T01:49:00.060Z,24.84
2023-03-12T01:49:10.070Z,24.84
2023-03-12T01:49:20.081Z,24.84
2023-03-12T01:49:30.092Z,24.84
2023-03-12T01:49:40.103Z,24.85
2023-03-12T01:49:50.121Z,24.85
2023-03-12T01:50:00.178Z,24.85
2023-03-12T01:50:10.167Z,24.86
2023-03-12T01:50:20.168Z,24.86
2023-03-12T01:50:30.553Z,24.86
2023-03-12T01:50:40.562Z,24.87
2023-03-12T01:50:50.567Z,24.87
2023-03-12T01:51:00.599Z,24.87
2023-03-12T01:51:10.588Z,24.88
2023-03-12T01:51:20.614Z,24.88
2023-03-12T01:51:30.612Z,24.87
2023-03-12T01:51:40.617Z,24.87
2023-03-12T01:51:50.753Z,24.88
2023-03-12T01:52:00.756Z,24.89
2023-03-12T01:52:11.005Z,24.89
2023-03-12T01:52:21.027Z,24.88
2023-03-12T01:52:31.147Z,24.89
2023-03-12T01:52:41.451Z,24.89
2023-03-12T01:52:51.429Z,24.89
2023-03-12T01:53:01.433Z,24.89
2023-03-12T01:53:11.811Z,24.89
2023-03-12T01:53:21.818Z,24.89
2023-03-12T01:53:31.831Z,24.89
2023-03-12T01:53:41.840Z,24.90
2023-03-12T01:53:51.845Z,24.90
2023-03-12T01:54:01.858Z,24.91
2023-03-12T01:54:11.868Z,24.90
2023-03-12T01:54:21.875Z,24.90
2023-03-12T01:54:32.004Z,24.90
2023-03-12T01:54:42.002Z,24.90
2023-03-12T01:54:52.263Z,24.91
2023-03-12T01:55:02.266Z,24.92
2023-03-12T01:55:12.268Z,24.92
2023-03-12T01:55:22.268Z,24.93
2023-03-12T01:55:32.280Z,24.93
2023-03-12T01:55:42.278Z,24.94
2023-03-12T01:55:52.287Z,24.94
2023-03-12T01:56:02.297Z,24.93
2023-03-12T01:56:12.440Z,24.93
2023-03-12T01:56:22.438Z,24.94
2023-03-12T01:56:32.672Z,24.94
2023-03-12T01:56:42.684Z,24.94
2023-03-12T01:56:52.695Z,24.94
2023-03-12T01:57:02.717Z,24.94
2023-03-12T01:57:12.727Z,24.94
2023-03-12T01:57:22.728Z,24.95
2023-03-12T01:57:32.743Z,24.95
2023-03-12T01:57:42.756Z,24.95
2023-03-12T01:57:52.770Z,24.95
2023-03-12T01:58:02.757Z,24.95
2023-03-12T01:58:13.135Z,24.95
2023-03-12T01:58:23.138Z,24.96
2023-03-12T01:58:33.254Z,24.97
2023-03-12T01:58:43.512Z,24.97
2023-03-12T01:58:53.634Z,24.96
2023-03-12T01:59:03.632Z,24.97
2023-03-12T01:59:13.892Z,24.98
2023-03-12T01:59:23.890Z,24.97
2023-03-12T01:59:34.006Z,24.96
2023-03-12T01:59:44.272Z,24.97
2023-03-12T01:59:54.280Z,24.97
2023-03-12T02:00:07.160Z,24.97
2023-03-12T02:00:14.378Z,24.94
2023-03-12T02:00:24.374Z,24.95
2023-03-12T02:00:34.385Z,24.95
2023-03-12T02:00:44.385Z,24.95
2023-03-12T02:00:54.406Z,24.97
2023-03-12T02:01:04.471Z,24.98
2023-03-12T02:01:14.707Z,24.98
2023-03-12T02:01:24.722Z,24.98
2023-03-12T02:01:34.729Z,24.99
2023-03-12T02:01:44.733Z,24.98
2023-03-12T02:01:54.894Z,24.98
2023-03-12T02:02:04.872Z,24.98
2023-03-12T02:02:14.915Z,24.98
2023-03-12T02:02:24.924Z,24.99
2023-03-12T02:02:34.934Z,24.99
2023-03-12T02:02:44.950Z,24.99
2023-03-12T02:02:55.211Z,24.99
2023-03-12T02:03:05.213Z,25.00
2023-03-12T02:03:15.231Z,24.99
2023-03-12T02:03:25.214Z,24.99
2023-03-12T02:03:35.380Z,24.99
2023-03-12T02:03:45.516Z,25.00
2023-03-12T02:03:55.590Z,25.00
2023-03-12T02:04:05.720Z,24.99
2023-03-12T02:04:15.764Z,24.99
2023-03-12T02:04:25.674Z,24.98
2023-03-12T02:04:35.924Z,24.98
2023-03-12T02:04:45.985Z,24.99
2023-03-12T02:04:55.983Z,25.00
2023-03-12T02:05:05.982Z,24.99
2023-03-12T02:05:16.002Z,24.99
2023-03-12T02:05:25.992Z,25.00
2023-03-12T02:05:36.005Z,25.00
2023-03-12T02:05:46.032Z,25.00
2023-03-12T02:05:56.040Z,25.01
2023-03-12T02:06:06.034Z,25.01
2023-03-12T02:06:16.054Z,25.01
2023-03-12T02:06:26.058Z,25.01
2023-03-12T02:06:36.176Z,25.01
2023-03-12T02:06:46.170Z,25.01
2023-03-12T02:06:56.177Z,25.01
2023-03-12T02:07:06.215Z,25.02
2023-03-12T02:07:16.214Z,25.02
2023-03-12T02:07:26.470Z,25.02
2023-03-12T02:07:36.587Z,25.02
2023-03-12T02:07:46.592Z,25.02
2023-03-12T02:07:56.848Z,25.02
2023-03-12T02:08:06.849Z,25.04
2023-03-12T02:08:16.965Z,25.03
2023-03-12T02:08:27.243Z,25.03
2023-03-12T02:08:37.360Z,25.04
2023-03-12T02:08:47.350Z,25.03
2023-03-12T02:08:57.597Z,25.03
2023-03-12T02:09:07.602Z,25.03
2023-03-12T02:09:17.603Z,25.04
2023-03-12T02:09:27.612Z,25.04
2023-03-12T02:09:37.620Z,25.03